sensor_id;sensor_type;location;lat;lon;timestamp;P1;durP1;ratioP1;P2;durP2;ratioP2
72941;SDS011;69665;55.822;37.330;2024-01-11T00:01:58;5.85;;;2.00;;
72941;SDS011;69665;55.822;37.330;2024-01-11T00:04:23;6.40;;;2.35;;
72941;SDS011;69665;55.822;37.330;2024-01-11T00:06:49;6.85;;;2.30;;
72941;SDS011;69665;55.822;37.330;2024-01-11T00:09:15;5.85;;;2.42;;
72941;SDS011;69665;55.822;37.330;2024-01-11T00:11:41;5.82;;;1.85;;
72941;SDS011;69665;55.822;37.330;2024-01-11T00:14:07;4.82;;;1.92;;
72941;SDS011;69665;55.822;37.330;2024-01-11T00:16:32;3.50;;;1.55;;
72941;SDS011;69665;55.822;37.330;2024-01-11T00:18:58;4.75;;;1.85;;
72941;SDS011;69665;55.822;37.330;2024-01-11T00:21:24;5.60;;;1.95;;
72941;SDS011;69665;55.822;37.330;2024-01-11T00:23:49;5.72;;;1.92;;
72941;SDS011;69665;55.822;37.330;2024-01-11T00:26:15;5.65;;;2.20;;
72941;SDS011;69665;55.822;37.330;2024-01-11T00:28:40;4.95;;;1.83;;
72941;SDS011;69665;55.822;37.330;2024-01-11T00:31:06;7.32;;;1.95;;
72941;SDS011;69665;55.822;37.330;2024-01-11T00:33:32;3.38;;;1.38;;
72941;SDS011;69665;55.822;37.330;2024-01-11T00:35:58;5.75;;;2.20;;
72941;SDS011;69665;55.822;37.330;2024-01-11T00:38:24;4.72;;;1.83;;
72941;SDS011;69665;55.822;37.330;2024-01-11T00:40:49;4.63;;;1.70;;
72941;SDS011;69665;55.822;37.330;2024-01-11T00:43:15;4.03;;;1.60;;
72941;SDS011;69665;55.822;37.330;2024-01-11T00:45:41;3.80;;;1.13;;
72941;SDS011;69665;55.822;37.330;2024-01-11T00:48:06;6.72;;;1.80;;
72941;SDS011;69665;55.822;37.330;2024-01-11T00:50:32;6.47;;;2.10;;
72941;SDS011;69665;55.822;37.330;2024-01-11T00:52:57;4.10;;;1.90;;
72941;SDS011;69665;55.822;37.330;2024-01-11T00:55:23;6.93;;;1.73;;
72941;SDS011;69665;55.822;37.330;2024-01-11T00:57:49;4.80;;;1.67;;
72941;SDS011;69665;55.822;37.330;2024-01-11T01:00:15;5.03;;;1.50;;
72941;SDS011;69665;55.822;37.330;2024-01-11T01:02:41;4.75;;;1.80;;
72941;SDS011;69665;55.822;37.330;2024-01-11T01:05:07;5.18;;;2.05;;
72941;SDS011;69665;55.822;37.330;2024-01-11T01:07:33;2.70;;;1.10;;
72941;SDS011;69665;55.822;37.330;2024-01-11T01:09:59;3.38;;;1.10;;
72941;SDS011;69665;55.822;37.330;2024-01-11T01:12:24;4.07;;;1.17;;
72941;SDS011;69665;55.822;37.330;2024-01-11T01:14:51;3.95;;;1.40;;
72941;SDS011;69665;55.822;37.330;2024-01-11T01:17:16;5.03;;;1.35;;
72941;SDS011;69665;55.822;37.330;2024-01-11T01:19:43;3.13;;;1.10;;
72941;SDS011;69665;55.822;37.330;2024-01-11T01:22:09;4.07;;;1.10;;
72941;SDS011;69665;55.822;37.330;2024-01-11T01:24:34;7.90;;;1.85;;
72941;SDS011;69665;55.822;37.330;2024-01-11T01:27:00;3.42;;;1.30;;
72941;SDS011;69665;55.822;37.330;2024-01-11T01:29:26;4.22;;;1.30;;
72941;SDS011;69665;55.822;37.330;2024-01-11T01:31:52;2.95;;;1.02;;
72941;SDS011;69665;55.822;37.330;2024-01-11T01:34:17;3.05;;;1.23;;
72941;SDS011;69665;55.822;37.330;2024-01-11T01:36:43;5.05;;;1.58;;
72941;SDS011;69665;55.822;37.330;2024-01-11T01:39:09;3.72;;;1.20;;
72941;SDS011;69665;55.822;37.330;2024-01-11T01:41:34;3.88;;;1.10;;
72941;SDS011;69665;55.822;37.330;2024-01-11T01:44:00;3.38;;;1.10;;
72941;SDS011;69665;55.822;37.330;2024-01-11T01:46:26;3.70;;;1.00;;
72941;SDS011;69665;55.822;37.330;2024-01-11T01:48:53;4.32;;;1.45;;
72941;SDS011;69665;55.822;37.330;2024-01-11T01:51:22;2.35;;;0.90;;
72941;SDS011;69665;55.822;37.330;2024-01-11T01:53:50;4.20;;;1.10;;
72941;SDS011;69665;55.822;37.330;2024-01-11T01:56:21;3.97;;;1.20;;
72941;SDS011;69665;55.822;37.330;2024-01-11T01:58:47;4.22;;;1.20;;
72941;SDS011;69665;55.822;37.330;2024-01-11T02:01:16;1.95;;;1.10;;
72941;SDS011;69665;55.822;37.330;2024-01-11T02:03:44;3.42;;;1.23;;
72941;SDS011;69665;55.822;37.330;2024-01-11T02:06:11;3.67;;;1.30;;
72941;SDS011;69665;55.822;37.330;2024-01-11T02:08:39;3.53;;;1.10;;
72941;SDS011;69665;55.822;37.330;2024-01-11T02:11:08;5.43;;;1.67;;
72941;SDS011;69665;55.822;37.330;2024-01-11T02:13:36;6.72;;;1.92;;
72941;SDS011;69665;55.822;37.330;2024-01-11T02:16:03;3.72;;;1.08;;
72941;SDS011;69665;55.822;37.330;2024-01-11T02:18:29;4.03;;;1.30;;
72941;SDS011;69665;55.822;37.330;2024-01-11T02:20:56;4.50;;;1.40;;
72941;SDS011;69665;55.822;37.330;2024-01-11T02:23:22;5.50;;;1.80;;
72941;SDS011;69665;55.822;37.330;2024-01-11T02:25:50;3.55;;;1.27;;
72941;SDS011;69665;55.822;37.330;2024-01-11T02:28:15;4.57;;;1.55;;
72941;SDS011;69665;55.822;37.330;2024-01-11T02:30:41;2.95;;;1.00;;
72941;SDS011;69665;55.822;37.330;2024-01-11T02:33:08;4.18;;;1.10;;
72941;SDS011;69665;55.822;37.330;2024-01-11T02:35:34;3.00;;;1.00;;
72941;SDS011;69665;55.822;37.330;2024-01-11T02:38:02;4.38;;;1.15;;
72941;SDS011;69665;55.822;37.330;2024-01-11T02:40:29;2.67;;;1.00;;
72941;SDS011;69665;55.822;37.330;2024-01-11T02:42:54;5.82;;;1.40;;
72941;SDS011;69665;55.822;37.330;2024-01-11T02:45:20;4.32;;;1.25;;
72941;SDS011;69665;55.822;37.330;2024-01-11T02:47:46;2.53;;;1.00;;
72941;SDS011;69665;55.822;37.330;2024-01-11T02:50:11;2.28;;;0.70;;
72941;SDS011;69665;55.822;37.330;2024-01-11T02:52:37;0.98;;;0.52;;
72941;SDS011;69665;55.822;37.330;2024-01-11T02:55:03;1.33;;;0.60;;
72941;SDS011;69665;55.822;37.330;2024-01-11T02:57:29;1.83;;;0.45;;
72941;SDS011;69665;55.822;37.330;2024-01-11T02:59:55;2.38;;;0.65;;
72941;SDS011;69665;55.822;37.330;2024-01-11T03:02:20;3.65;;;1.10;;
72941;SDS011;69665;55.822;37.330;2024-01-11T03:04:46;1.92;;;0.75;;
72941;SDS011;69665;55.822;37.330;2024-01-11T03:07:12;1.45;;;0.60;;
72941;SDS011;69665;55.822;37.330;2024-01-11T03:09:37;1.13;;;0.50;;
72941;SDS011;69665;55.822;37.330;2024-01-11T03:12:03;0.98;;;0.40;;
72941;SDS011;69665;55.822;37.330;2024-01-11T03:14:29;2.13;;;0.77;;
72941;SDS011;69665;55.822;37.330;2024-01-11T03:16:54;0.95;;;0.50;;
72941;SDS011;69665;55.822;37.330;2024-01-11T03:19:20;1.38;;;0.50;;
72941;SDS011;69665;55.822;37.330;2024-01-11T03:21:46;2.00;;;0.68;;
72941;SDS011;69665;55.822;37.330;2024-01-11T03:24:12;1.65;;;0.40;;
72941;SDS011;69665;55.822;37.330;2024-01-11T03:26:40;0.82;;;0.22;;
72941;SDS011;69665;55.822;37.330;2024-01-11T03:29:06;0.52;;;0.20;;
72941;SDS011;69665;55.822;37.330;2024-01-11T03:31:32;0.77;;;0.30;;
72941;SDS011;69665;55.822;37.330;2024-01-11T03:33:57;0.88;;;0.28;;
72941;SDS011;69665;55.822;37.330;2024-01-11T03:36:23;1.00;;;0.30;;
72941;SDS011;69665;55.822;37.330;2024-01-11T03:38:52;0.40;;;0.30;;
72941;SDS011;69665;55.822;37.330;2024-01-11T03:41:18;0.75;;;0.30;;
72941;SDS011;69665;55.822;37.330;2024-01-11T03:43:44;0.68;;;0.32;;
72941;SDS011;69665;55.822;37.330;2024-01-11T03:46:10;1.30;;;0.50;;
72941;SDS011;69665;55.822;37.330;2024-01-11T03:48:36;0.77;;;0.30;;
72941;SDS011;69665;55.822;37.330;2024-01-11T03:51:01;1.25;;;0.30;;
72941;SDS011;69665;55.822;37.330;2024-01-11T03:53:28;1.35;;;0.40;;
72941;SDS011;69665;55.822;37.330;2024-01-11T03:55:54;1.17;;;0.55;;
72941;SDS011;69665;55.822;37.330;2024-01-11T03:58:19;1.92;;;0.50;;
72941;SDS011;69665;55.822;37.330;2024-01-11T04:00:45;1.00;;;0.47;;
72941;SDS011;69665;55.822;37.330;2024-01-11T04:03:10;1.00;;;0.35;;
72941;SDS011;69665;55.822;37.330;2024-01-11T04:05:36;0.30;;;0.20;;
72941;SDS011;69665;55.822;37.330;2024-01-11T04:08:05;0.65;;;0.22;;
72941;SDS011;69665;55.822;37.330;2024-01-11T04:10:32;1.08;;;0.40;;
72941;SDS011;69665;55.822;37.330;2024-01-11T04:12:58;0.98;;;0.38;;
72941;SDS011;69665;55.822;37.330;2024-01-11T04:15:23;1.25;;;0.47;;
72941;SDS011;69665;55.822;37.330;2024-01-11T04:17:49;0.95;;;0.40;;
72941;SDS011;69665;55.822;37.330;2024-01-11T04:20:15;0.88;;;0.40;;
72941;SDS011;69665;55.822;37.330;2024-01-11T04:22:40;1.75;;;0.40;;
72941;SDS011;69665;55.822;37.330;2024-01-11T04:25:07;0.75;;;0.38;;
72941;SDS011;69665;55.822;37.330;2024-01-11T04:27:33;1.60;;;0.45;;
72941;SDS011;69665;55.822;37.330;2024-01-11T04:29:58;0.63;;;0.38;;
72941;SDS011;69665;55.822;37.330;2024-01-11T04:32:24;0.60;;;0.28;;
72941;SDS011;69665;55.822;37.330;2024-01-11T04:34:49;1.15;;;0.30;;
72941;SDS011;69665;55.822;37.330;2024-01-11T04:37:15;2.25;;;0.60;;
72941;SDS011;69665;55.822;37.330;2024-01-11T04:39:41;1.58;;;0.52;;
72941;SDS011;69665;55.822;37.330;2024-01-11T04:42:06;1.80;;;0.60;;
72941;SDS011;69665;55.822;37.330;2024-01-11T04:44:32;1.80;;;0.60;;
72941;SDS011;69665;55.822;37.330;2024-01-11T04:46:57;2.40;;;0.57;;
72941;SDS011;69665;55.822;37.330;2024-01-11T04:49:23;0.75;;;0.35;;
72941;SDS011;69665;55.822;37.330;2024-01-11T04:51:48;1.60;;;0.50;;
72941;SDS011;69665;55.822;37.330;2024-01-11T04:54:14;1.40;;;0.50;;
72941;SDS011;69665;55.822;37.330;2024-01-11T04:56:39;1.42;;;0.32;;
72941;SDS011;69665;55.822;37.330;2024-01-11T04:59:05;2.03;;;0.55;;
72941;SDS011;69665;55.822;37.330;2024-01-11T05:01:31;2.58;;;0.80;;
72941;SDS011;69665;55.822;37.330;2024-01-11T05:03:56;2.75;;;0.60;;
72941;SDS011;69665;55.822;37.330;2024-01-11T05:06:22;1.50;;;0.50;;
72941;SDS011;69665;55.822;37.330;2024-01-11T05:08:49;1.33;;;0.57;;
72941;SDS011;69665;55.822;37.330;2024-01-11T05:11:21;2.17;;;0.60;;
72941;SDS011;69665;55.822;37.330;2024-01-11T05:13:49;3.90;;;0.70;;
72941;SDS011;69665;55.822;37.330;2024-01-11T05:16:19;1.92;;;0.70;;
72941;SDS011;69665;55.822;37.330;2024-01-11T05:18:46;1.75;;;0.60;;
72941;SDS011;69665;55.822;37.330;2024-01-11T05:21:12;1.60;;;0.60;;
72941;SDS011;69665;55.822;37.330;2024-01-11T05:23:38;2.15;;;0.60;;
72941;SDS011;69665;55.822;37.330;2024-01-11T05:26:03;1.20;;;0.47;;
72941;SDS011;69665;55.822;37.330;2024-01-11T05:28:38;2.60;;;0.60;;
72941;SDS011;69665;55.822;37.330;2024-01-11T05:31:10;2.63;;;0.60;;
72941;SDS011;69665;55.822;37.330;2024-01-11T05:33:38;1.48;;;0.57;;
72941;SDS011;69665;55.822;37.330;2024-01-11T05:36:04;1.13;;;0.50;;
72941;SDS011;69665;55.822;37.330;2024-01-11T05:38:30;1.55;;;0.50;;
72941;SDS011;69665;55.822;37.330;2024-01-11T05:40:57;2.50;;;0.75;;
72941;SDS011;69665;55.822;37.330;2024-01-11T05:43:22;2.00;;;0.52;;
72941;SDS011;69665;55.822;37.330;2024-01-11T05:45:49;2.38;;;0.63;;
72941;SDS011;69665;55.822;37.330;2024-01-11T05:48:15;2.45;;;0.80;;
72941;SDS011;69665;55.822;37.330;2024-01-11T05:50:41;1.60;;;0.60;;
72941;SDS011;69665;55.822;37.330;2024-01-11T05:53:07;1.70;;;0.50;;
72941;SDS011;69665;55.822;37.330;2024-01-11T05:55:33;1.60;;;0.63;;
72941;SDS011;69665;55.822;37.330;2024-01-11T05:57:59;1.67;;;0.60;;
72941;SDS011;69665;55.822;37.330;2024-01-11T06:00:25;2.78;;;0.60;;
72941;SDS011;69665;55.822;37.330;2024-01-11T06:02:51;1.50;;;0.45;;
72941;SDS011;69665;55.822;37.330;2024-01-11T06:05:16;1.08;;;0.60;;
72941;SDS011;69665;55.822;37.330;2024-01-11T06:07:42;2.33;;;0.68;;
72941;SDS011;69665;55.822;37.330;2024-01-11T06:10:08;2.15;;;0.65;;
72941;SDS011;69665;55.822;37.330;2024-01-11T06:12:34;3.10;;;0.65;;
72941;SDS011;69665;55.822;37.330;2024-01-11T06:15:00;2.05;;;0.68;;
72941;SDS011;69665;55.822;37.330;2024-01-11T06:17:32;1.90;;;0.60;;
72941;SDS011;69665;55.822;37.330;2024-01-11T06:19:58;1.92;;;0.70;;
72941;SDS011;69665;55.822;37.330;2024-01-11T06:22:24;3.28;;;0.88;;
72941;SDS011;69665;55.822;37.330;2024-01-11T06:24:52;2.35;;;0.70;;
72941;SDS011;69665;55.822;37.330;2024-01-11T06:27:18;2.58;;;0.70;;
72941;SDS011;69665;55.822;37.330;2024-01-11T06:29:45;1.55;;;0.60;;
72941;SDS011;69665;55.822;37.330;2024-01-11T06:32:11;2.85;;;0.60;;
72941;SDS011;69665;55.822;37.330;2024-01-11T06:34:37;2.25;;;0.75;;
72941;SDS011;69665;55.822;37.330;2024-01-11T06:37:02;2.50;;;0.55;;
72941;SDS011;69665;55.822;37.330;2024-01-11T06:39:31;1.10;;;0.50;;
72941;SDS011;69665;55.822;37.330;2024-01-11T06:41:57;2.30;;;0.60;;
72941;SDS011;69665;55.822;37.330;2024-01-11T06:44:22;3.00;;;0.70;;
72941;SDS011;69665;55.822;37.330;2024-01-11T06:46:48;3.92;;;0.80;;
72941;SDS011;69665;55.822;37.330;2024-01-11T06:49:13;1.60;;;0.57;;
72941;SDS011;69665;55.822;37.330;2024-01-11T06:51:39;2.45;;;0.90;;
72941;SDS011;69665;55.822;37.330;2024-01-11T06:54:06;1.98;;;0.60;;
72941;SDS011;69665;55.822;37.330;2024-01-11T06:56:32;0.85;;;0.40;;
72941;SDS011;69665;55.822;37.330;2024-01-11T06:58:58;2.42;;;0.65;;
72941;SDS011;69665;55.822;37.330;2024-01-11T07:01:23;0.75;;;0.35;;
72941;SDS011;69665;55.822;37.330;2024-01-11T07:03:49;2.30;;;0.50;;
72941;SDS011;69665;55.822;37.330;2024-01-11T07:06:15;0.75;;;0.40;;
72941;SDS011;69665;55.822;37.330;2024-01-11T07:08:41;1.95;;;0.50;;
72941;SDS011;69665;55.822;37.330;2024-01-11T07:11:07;0.57;;;0.40;;
72941;SDS011;69665;55.822;37.330;2024-01-11T07:13:32;0.63;;;0.40;;
72941;SDS011;69665;55.822;37.330;2024-01-11T07:15:58;1.20;;;0.30;;
72941;SDS011;69665;55.822;37.330;2024-01-11T07:18:24;2.42;;;0.50;;
72941;SDS011;69665;55.822;37.330;2024-01-11T07:20:51;0.63;;;0.50;;
72941;SDS011;69665;55.822;37.330;2024-01-11T07:23:17;2.08;;;0.38;;
72941;SDS011;69665;55.822;37.330;2024-01-11T07:25:42;1.52;;;0.60;;
72941;SDS011;69665;55.822;37.330;2024-01-11T07:28:08;3.15;;;0.68;;
72941;SDS011;69665;55.822;37.330;2024-01-11T07:30:34;1.17;;;0.40;;
72941;SDS011;69665;55.822;37.330;2024-01-11T07:33:00;1.42;;;0.40;;
72941;SDS011;69665;55.822;37.330;2024-01-11T07:35:25;3.13;;;1.25;;
72941;SDS011;69665;55.822;37.330;2024-01-11T07:37:51;1.85;;;0.45;;
72941;SDS011;69665;55.822;37.330;2024-01-11T07:40:19;1.52;;;0.63;;
72941;SDS011;69665;55.822;37.330;2024-01-11T07:42:45;1.45;;;0.73;;
72941;SDS011;69665;55.822;37.330;2024-01-11T07:45:11;0.55;;;0.20;;
72941;SDS011;69665;55.822;37.330;2024-01-11T07:47:37;1.23;;;0.45;;
72941;SDS011;69665;55.822;37.330;2024-01-11T07:50:06;1.58;;;0.40;;
72941;SDS011;69665;55.822;37.330;2024-01-11T07:52:35;0.93;;;0.40;;
72941;SDS011;69665;55.822;37.330;2024-01-11T07:55:02;2.58;;;0.63;;
72941;SDS011;69665;55.822;37.330;2024-01-11T07:57:36;3.10;;;0.50;;
72941;SDS011;69665;55.822;37.330;2024-01-11T08:00:03;1.88;;;0.47;;
72941;SDS011;69665;55.822;37.330;2024-01-11T08:02:38;1.75;;;0.50;;
72941;SDS011;69665;55.822;37.330;2024-01-11T08:05:04;1.40;;;0.50;;
72941;SDS011;69665;55.822;37.330;2024-01-11T08:07:30;1.63;;;0.45;;
72941;SDS011;69665;55.822;37.330;2024-01-11T08:09:56;0.85;;;0.38;;
72941;SDS011;69665;55.822;37.330;2024-01-11T08:12:22;1.05;;;0.40;;
72941;SDS011;69665;55.822;37.330;2024-01-11T08:14:47;1.63;;;0.55;;
72941;SDS011;69665;55.822;37.330;2024-01-11T08:17:13;2.00;;;0.57;;
72941;SDS011;69665;55.822;37.330;2024-01-11T08:19:39;0.73;;;0.40;;
72941;SDS011;69665;55.822;37.330;2024-01-11T08:22:06;1.05;;;0.30;;
72941;SDS011;69665;55.822;37.330;2024-01-11T08:24:32;0.77;;;0.43;;
72941;SDS011;69665;55.822;37.330;2024-01-11T08:26:59;1.40;;;0.57;;
72941;SDS011;69665;55.822;37.330;2024-01-11T08:29:25;1.45;;;0.40;;
72941;SDS011;69665;55.822;37.330;2024-01-11T08:31:51;2.20;;;0.50;;
72941;SDS011;69665;55.822;37.330;2024-01-11T08:34:17;2.80;;;0.60;;
72941;SDS011;69665;55.822;37.330;2024-01-11T08:36:43;1.88;;;0.40;;
72941;SDS011;69665;55.822;37.330;2024-01-11T08:39:08;1.55;;;0.45;;
72941;SDS011;69665;55.822;37.330;2024-01-11T08:41:36;2.30;;;0.50;;
72941;SDS011;69665;55.822;37.330;2024-01-11T08:44:05;0.80;;;0.35;;
72941;SDS011;69665;55.822;37.330;2024-01-11T08:46:31;2.30;;;0.40;;
72941;SDS011;69665;55.822;37.330;2024-01-11T08:48:58;2.15;;;0.50;;
72941;SDS011;69665;55.822;37.330;2024-01-11T08:51:25;0.60;;;0.20;;
72941;SDS011;69665;55.822;37.330;2024-01-11T08:53:51;0.85;;;0.15;;
72941;SDS011;69665;55.822;37.330;2024-01-11T08:56:18;0.75;;;0.22;;
72941;SDS011;69665;55.822;37.330;2024-01-11T08:58:44;0.52;;;0.38;;
72941;SDS011;69665;55.822;37.330;2024-01-11T09:01:10;0.80;;;0.22;;
72941;SDS011;69665;55.822;37.330;2024-01-11T09:03:36;0.88;;;0.20;;
72941;SDS011;69665;55.822;37.330;2024-01-11T09:06:02;2.00;;;0.25;;
72941;SDS011;69665;55.822;37.330;2024-01-11T09:08:28;1.58;;;0.40;;
72941;SDS011;69665;55.822;37.330;2024-01-11T09:10:57;1.10;;;0.40;;
72941;SDS011;69665;55.822;37.330;2024-01-11T09:13:23;0.47;;;0.20;;
72941;SDS011;69665;55.822;37.330;2024-01-11T09:15:51;1.17;;;0.50;;
72941;SDS011;69665;55.822;37.330;2024-01-11T09:18:17;0.95;;;0.40;;
72941;SDS011;69665;55.822;37.330;2024-01-11T09:20:43;1.20;;;0.43;;
72941;SDS011;69665;55.822;37.330;2024-01-11T09:23:09;0.50;;;0.30;;
72941;SDS011;69665;55.822;37.330;2024-01-11T09:25:35;1.38;;;0.40;;
72941;SDS011;69665;55.822;37.330;2024-01-11T09:28:00;2.53;;;0.70;;
72941;SDS011;69665;55.822;37.330;2024-01-11T09:30:29;2.35;;;0.82;;
72941;SDS011;69665;55.822;37.330;2024-01-11T09:32:55;3.17;;;1.15;;
72941;SDS011;69665;55.822;37.330;2024-01-11T09:35:24;3.17;;;0.70;;
72941;SDS011;69665;55.822;37.330;2024-01-11T09:37:50;1.58;;;0.43;;
72941;SDS011;69665;55.822;37.330;2024-01-11T09:40:16;1.27;;;0.32;;
72941;SDS011;69665;55.822;37.330;2024-01-11T09:42:44;1.80;;;0.50;;
72941;SDS011;69665;55.822;37.330;2024-01-11T09:45:13;0.88;;;0.50;;
72941;SDS011;69665;55.822;37.330;2024-01-11T09:47:43;4.88;;;0.85;;
72941;SDS011;69665;55.822;37.330;2024-01-11T09:50:11;1.40;;;0.70;;
72941;SDS011;69665;55.822;37.330;2024-01-11T09:52:45;2.47;;;0.63;;
72941;SDS011;69665;55.822;37.330;2024-01-11T09:55:15;2.47;;;0.70;;
72941;SDS011;69665;55.822;37.330;2024-01-11T09:57:44;1.40;;;0.40;;
72941;SDS011;69665;55.822;37.330;2024-01-11T10:00:13;2.25;;;0.70;;
72941;SDS011;69665;55.822;37.330;2024-01-11T10:02:42;1.27;;;0.60;;
72941;SDS011;69665;55.822;37.330;2024-01-11T10:05:07;1.20;;;0.50;;
72941;SDS011;69665;55.822;37.330;2024-01-11T10:07:33;3.67;;;0.80;;
72941;SDS011;69665;55.822;37.330;2024-01-11T10:09:59;0.80;;;0.63;;
72941;SDS011;69665;55.822;37.330;2024-01-11T10:12:28;2.08;;;0.75;;
72941;SDS011;69665;55.822;37.330;2024-01-11T10:14:54;2.40;;;0.50;;
72941;SDS011;69665;55.822;37.330;2024-01-11T10:17:20;1.95;;;0.60;;
72941;SDS011;69665;55.822;37.330;2024-01-11T10:19:45;1.73;;;0.70;;
72941;SDS011;69665;55.822;37.330;2024-01-11T10:22:11;1.92;;;0.63;;
72941;SDS011;69665;55.822;37.330;2024-01-11T10:27:08;1.90;;;0.75;;
72941;SDS011;69665;55.822;37.330;2024-01-11T10:29:35;1.10;;;0.47;;
72941;SDS011;69665;55.822;37.330;2024-01-11T10:32:03;0.77;;;0.40;;
72941;SDS011;69665;55.822;37.330;2024-01-11T10:34:29;0.60;;;0.30;;
72941;SDS011;69665;55.822;37.330;2024-01-11T10:36:55;1.02;;;0.43;;
72941;SDS011;69665;55.822;37.330;2024-01-11T10:39:23;1.80;;;0.70;;
72941;SDS011;69665;55.822;37.330;2024-01-11T10:41:51;3.78;;;0.60;;
72941;SDS011;69665;55.822;37.330;2024-01-11T10:44:21;1.58;;;0.60;;
72941;SDS011;69665;55.822;37.330;2024-01-11T10:46:50;1.65;;;0.40;;
72941;SDS011;69665;55.822;37.330;2024-01-11T10:49:20;1.50;;;0.50;;
72941;SDS011;69665;55.822;37.330;2024-01-11T10:52:10;0.57;;;0.15;;
72941;SDS011;69665;55.822;37.330;2024-01-11T10:54:36;2.55;;;0.60;;
72941;SDS011;69665;55.822;37.330;2024-01-11T10:57:03;0.55;;;0.40;;
72941;SDS011;69665;55.822;37.330;2024-01-11T10:59:31;1.58;;;0.43;;
72941;SDS011;69665;55.822;37.330;2024-01-11T11:01:59;1.88;;;0.52;;
72941;SDS011;69665;55.822;37.330;2024-01-11T11:04:31;1.30;;;0.45;;
72941;SDS011;69665;55.822;37.330;2024-01-11T11:07:00;1.02;;;0.50;;
72941;SDS011;69665;55.822;37.330;2024-01-11T11:09:27;1.92;;;0.50;;
72941;SDS011;69665;55.822;37.330;2024-01-11T11:11:55;0.20;;;0.20;;
72941;SDS011;69665;55.822;37.330;2024-01-11T11:14:23;3.40;;;0.60;;
72941;SDS011;69665;55.822;37.330;2024-01-11T11:16:49;1.55;;;0.60;;
72941;SDS011;69665;55.822;37.330;2024-01-11T11:19:17;1.02;;;0.38;;
72941;SDS011;69665;55.822;37.330;2024-01-11T11:21:44;2.40;;;0.50;;
72941;SDS011;69665;55.822;37.330;2024-01-11T11:24:12;1.08;;;0.60;;
72941;SDS011;69665;55.822;37.330;2024-01-11T11:26:39;1.90;;;0.60;;
72941;SDS011;69665;55.822;37.330;2024-01-11T11:29:05;3.63;;;1.20;;
72941;SDS011;69665;55.822;37.330;2024-01-11T11:31:52;2.20;;;0.73;;
72941;SDS011;69665;55.822;37.330;2024-01-11T11:34:37;1.05;;;0.38;;
72941;SDS011;69665;55.822;37.330;2024-01-11T11:37:05;1.65;;;0.40;;
72941;SDS011;69665;55.822;37.330;2024-01-11T11:39:31;1.95;;;0.50;;
72941;SDS011;69665;55.822;37.330;2024-01-11T11:41:58;1.10;;;0.38;;
72941;SDS011;69665;55.822;37.330;2024-01-11T11:44:26;0.77;;;0.35;;
72941;SDS011;69665;55.822;37.330;2024-01-11T11:46:52;2.63;;;0.80;;
72941;SDS011;69665;55.822;37.330;2024-01-11T11:49:18;3.28;;;1.05;;
72941;SDS011;69665;55.822;37.330;2024-01-11T11:51:44;1.60;;;0.73;;
72941;SDS011;69665;55.822;37.330;2024-01-11T11:54:10;2.35;;;0.90;;
72941;SDS011;69665;55.822;37.330;2024-01-11T11:56:36;3.83;;;0.75;;
72941;SDS011;69665;55.822;37.330;2024-01-11T11:59:02;1.23;;;0.60;;
72941;SDS011;69665;55.822;37.330;2024-01-11T12:01:32;5.05;;;1.25;;
72941;SDS011;69665;55.822;37.330;2024-01-11T12:04:01;1.02;;;0.52;;
72941;SDS011;69665;55.822;37.330;2024-01-11T12:06:27;2.63;;;1.05;;
72941;SDS011;69665;55.822;37.330;2024-01-11T12:08:54;1.98;;;0.77;;
72941;SDS011;69665;55.822;37.330;2024-01-11T12:11:21;2.65;;;1.00;;
72941;SDS011;69665;55.822;37.330;2024-01-11T12:13:48;1.65;;;0.57;;
72941;SDS011;69665;55.822;37.330;2024-01-11T12:16:14;2.70;;;0.93;;
72941;SDS011;69665;55.822;37.330;2024-01-11T12:18:40;2.50;;;0.80;;
72941;SDS011;69665;55.822;37.330;2024-01-11T12:21:07;3.50;;;1.00;;
72941;SDS011;69665;55.822;37.330;2024-01-11T12:23:33;4.47;;;0.82;;
72941;SDS011;69665;55.822;37.330;2024-01-11T12:26:01;3.92;;;0.95;;
72941;SDS011;69665;55.822;37.330;2024-01-11T12:28:29;2.15;;;0.80;;
72941;SDS011;69665;55.822;37.330;2024-01-11T12:30:58;1.48;;;0.57;;
72941;SDS011;69665;55.822;37.330;2024-01-11T12:33:23;2.30;;;0.88;;
72941;SDS011;69665;55.822;37.330;2024-01-11T12:35:53;6.00;;;1.02;;
72941;SDS011;69665;55.822;37.330;2024-01-11T12:38:20;2.15;;;0.45;;
72941;SDS011;69665;55.822;37.330;2024-01-11T12:40:46;2.90;;;1.08;;
72941;SDS011;69665;55.822;37.330;2024-01-11T12:43:12;2.40;;;0.68;;
72941;SDS011;69665;55.822;37.330;2024-01-11T12:45:38;2.70;;;0.77;;
72941;SDS011;69665;55.822;37.330;2024-01-11T12:48:07;2.67;;;0.70;;
72941;SDS011;69665;55.822;37.330;2024-01-11T12:50:34;1.98;;;0.77;;
72941;SDS011;69665;55.822;37.330;2024-01-11T12:53:13;2.67;;;0.85;;
72941;SDS011;69665;55.822;37.330;2024-01-11T12:55:47;0.88;;;0.28;;
72941;SDS011;69665;55.822;37.330;2024-01-11T12:58:18;2.00;;;0.80;;
72941;SDS011;69665;55.822;37.330;2024-01-11T13:00:47;1.30;;;0.65;;
72941;SDS011;69665;55.822;37.330;2024-01-11T13:03:16;2.17;;;0.90;;
72941;SDS011;69665;55.822;37.330;2024-01-11T13:05:41;4.78;;;0.93;;
72941;SDS011;69665;55.822;37.330;2024-01-11T13:08:07;3.30;;;0.75;;
72941;SDS011;69665;55.822;37.330;2024-01-11T13:10:34;6.07;;;1.33;;
72941;SDS011;69665;55.822;37.330;2024-01-11T13:13:04;2.75;;;0.73;;
72941;SDS011;69665;55.822;37.330;2024-01-11T13:15:31;0.45;;;0.30;;
72941;SDS011;69665;55.822;37.330;2024-01-11T13:17:59;2.90;;;1.13;;
72941;SDS011;69665;55.822;37.330;2024-01-11T13:20:25;2.08;;;0.88;;
72941;SDS011;69665;55.822;37.330;2024-01-11T13:23:34;1.23;;;0.52;;
72941;SDS011;69665;55.822;37.330;2024-01-11T13:25:49;4.00;;;1.30;;
72941;SDS011;69665;55.822;37.330;2024-01-11T13:28:15;1.63;;;0.73;;
72941;SDS011;69665;55.822;37.330;2024-01-11T13:30:42;3.70;;;1.08;;
72941;SDS011;69665;55.822;37.330;2024-01-11T13:33:09;3.75;;;0.93;;
72941;SDS011;69665;55.822;37.330;2024-01-11T13:35:39;3.25;;;0.90;;
72941;SDS011;69665;55.822;37.330;2024-01-11T13:38:05;2.63;;;0.93;;
72941;SDS011;69665;55.822;37.330;2024-01-11T13:40:34;3.58;;;1.20;;
72941;SDS011;69665;55.822;37.330;2024-01-11T13:43:00;3.88;;;1.02;;
72941;SDS011;69665;55.822;37.330;2024-01-11T13:45:28;3.60;;;1.00;;
72941;SDS011;69665;55.822;37.330;2024-01-11T13:47:55;4.90;;;1.20;;
72941;SDS011;69665;55.822;37.330;2024-01-11T13:50:22;2.85;;;1.17;;
72941;SDS011;69665;55.822;37.330;2024-01-11T13:52:52;2.22;;;0.88;;
72941;SDS011;69665;55.822;37.330;2024-01-11T13:55:18;2.65;;;0.93;;
72941;SDS011;69665;55.822;37.330;2024-01-11T13:57:44;2.90;;;1.20;;
72941;SDS011;69665;55.822;37.330;2024-01-11T14:00:10;3.03;;;0.90;;
72941;SDS011;69665;55.822;37.330;2024-01-11T14:02:37;3.22;;;0.93;;
72941;SDS011;69665;55.822;37.330;2024-01-11T14:05:03;2.53;;;1.05;;
72941;SDS011;69665;55.822;37.330;2024-01-11T14:07:31;3.70;;;1.15;;
72941;SDS011;69665;55.822;37.330;2024-01-11T14:09:57;3.85;;;1.38;;
72941;SDS011;69665;55.822;37.330;2024-01-11T14:12:23;3.22;;;1.00;;
72941;SDS011;69665;55.822;37.330;2024-01-11T14:14:49;5.13;;;1.08;;
72941;SDS011;69665;55.822;37.330;2024-01-11T14:17:16;4.13;;;1.00;;
72941;SDS011;69665;55.822;37.330;2024-01-11T14:19:42;8.25;;;1.25;;
72941;SDS011;69665;55.822;37.330;2024-01-11T14:22:08;1.27;;;0.73;;
72941;SDS011;69665;55.822;37.330;2024-01-11T14:24:33;3.60;;;0.88;;
72941;SDS011;69665;55.822;37.330;2024-01-11T14:26:59;3.17;;;0.95;;
72941;SDS011;69665;55.822;37.330;2024-01-11T14:29:25;3.17;;;0.93;;
72941;SDS011;69665;55.822;37.330;2024-01-11T14:31:51;3.47;;;0.95;;
72941;SDS011;69665;55.822;37.330;2024-01-11T14:34:17;2.53;;;0.68;;